sensor_id;sensor_type;location;lat;lon;timestamp;P1;durP1;ratioP1;P2;durP2;ratioP2
66425;SDS011;53237;46.158;14.604;2023-06-10T00:00:41;2.80;;;2.60;;
66425;SDS011;53237;46.158;14.604;2023-06-10T00:03:07;2.65;;;2.45;;
66425;SDS011;53237;46.158;14.604;2023-06-10T00:05:34;2.50;;;2.30;;
66425;SDS011;53237;46.158;14.604;2023-06-10T00:08:01;2.40;;;2.20;;
66425;SDS011;53237;46.158;14.604;2023-06-10T00:10:35;2.75;;;2.55;;
66425;SDS011;53237;46.158;14.604;2023-06-10T00:13:02;2.80;;;2.60;;
66425;SDS011;53237;46.158;14.604;2023-06-10T00:15:29;2.78;;;2.58;;
66425;SDS011;53237;46.158;14.604;2023-06-10T00:17:55;2.70;;;2.50;;
66425;SDS011;53237;46.158;14.604;2023-06-10T00:20:21;2.80;;;2.60;;
66425;SDS011;53237;46.158;14.604;2023-06-10T00:22:49;2.92;;;2.60;;
66425;SDS011;53237;46.158;14.604;2023-06-10T00:25:15;2.63;;;2.42;;
66425;SDS011;53237;46.158;14.604;2023-06-10T00:27:41;2.83;;;2.60;;
66425;SDS011;53237;46.158;14.604;2023-06-10T00:30:07;3.45;;;3.15;;
66425;SDS011;53237;46.158;14.604;2023-06-10T00:32:33;4.78;;;4.30;;
66425;SDS011;53237;46.158;14.604;2023-06-10T00:34:59;4.93;;;4.53;;
66425;SDS011;53237;46.158;14.604;2023-06-10T00:37:25;2.88;;;2.67;;
66425;SDS011;53237;46.158;14.604;2023-06-10T00:39:52;3.30;;;2.90;;
66425;SDS011;53237;46.158;14.604;2023-06-10T00:42:18;2.55;;;2.40;;
66425;SDS011;53237;46.158;14.604;2023-06-10T00:44:44;3.55;;;2.90;;
66425;SDS011;53237;46.158;14.604;2023-06-10T00:47:10;3.60;;;3.00;;
66425;SDS011;53237;46.158;14.604;2023-06-10T00:49:36;3.10;;;2.90;;
66425;SDS011;53237;46.158;14.604;2023-06-10T00:52:03;3.35;;;3.05;;
66425;SDS011;53237;46.158;14.604;2023-06-10T00:54:30;3.17;;;2.90;;
66425;SDS011;53237;46.158;14.604;2023-06-10T00:56:56;3.85;;;3.50;;
66425;SDS011;53237;46.158;14.604;2023-06-10T00:59:22;3.40;;;3.17;;
66425;SDS011;53237;46.158;14.604;2023-06-10T01:01:50;3.55;;;3.35;;
66425;SDS011;53237;46.158;14.604;2023-06-10T01:04:17;3.05;;;2.85;;
66425;SDS011;53237;46.158;14.604;2023-06-10T01:09:32;3.25;;;3.05;;
66425;SDS011;53237;46.158;14.604;2023-06-10T01:12:05;3.28;;;3.08;;
66425;SDS011;53237;46.158;14.604;2023-06-10T01:14:36;3.50;;;3.20;;
66425;SDS011;53237;46.158;14.604;2023-06-10T01:17:03;3.60;;;3.30;;
66425;SDS011;53237;46.158;14.604;2023-06-10T01:19:29;3.10;;;2.90;;
66425;SDS011;53237;46.158;14.604;2023-06-10T01:21:57;3.50;;;3.20;;
66425;SDS011;53237;46.158;14.604;2023-06-10T01:24:25;3.30;;;3.10;;
66425;SDS011;53237;46.158;14.604;2023-06-10T01:26:52;3.63;;;3.33;;
66425;SDS011;53237;46.158;14.604;2023-06-10T01:29:31;3.33;;;3.13;;
66425;SDS011;53237;46.158;14.604;2023-06-10T01:32:03;3.40;;;3.20;;
66425;SDS011;53237;46.158;14.604;2023-06-10T01:34:30;3.70;;;3.40;;
66425;SDS011;53237;46.158;14.604;2023-06-10T01:36:57;3.17;;;2.97;;
66425;SDS011;53237;46.158;14.604;2023-06-10T01:39:24;3.45;;;3.17;;
66425;SDS011;53237;46.158;14.604;2023-06-10T01:41:50;3.13;;;2.92;;
66425;SDS011;53237;46.158;14.604;2023-06-10T01:44:18;3.50;;;3.00;;
66425;SDS011;53237;46.158;14.604;2023-06-10T01:46:44;3.20;;;3.00;;
66425;SDS011;53237;46.158;14.604;2023-06-10T01:49:10;3.30;;;3.00;;
66425;SDS011;53237;46.158;14.604;2023-06-10T01:51:36;3.20;;;3.00;;
66425;SDS011;53237;46.158;14.604;2023-06-10T01:54:02;3.22;;;3.03;;
66425;SDS011;53237;46.158;14.604;2023-06-10T01:56:28;3.10;;;2.90;;
66425;SDS011;53237;46.158;14.604;2023-06-10T01:58:54;3.20;;;2.95;;
66425;SDS011;53237;46.158;14.604;2023-06-10T02:01:24;3.13;;;2.92;;
66425;SDS011;53237;46.158;14.604;2023-06-10T02:03:50;3.33;;;3.13;;
66425;SDS011;53237;46.158;14.604;2023-06-10T02:06:16;3.22;;;3.03;;
66425;SDS011;53237;46.158;14.604;2023-06-10T02:08:42;2.92;;;2.72;;
66425;SDS011;53237;46.158;14.604;2023-06-10T02:11:07;3.03;;;2.83;;
66425;SDS011;53237;46.158;14.604;2023-06-10T02:13:33;3.35;;;3.05;;
66425;SDS011;53237;46.158;14.604;2023-06-10T02:16:00;3.30;;;3.03;;
66425;SDS011;53237;46.158;14.604;2023-06-10T02:18:26;2.90;;;2.70;;
66425;SDS011;53237;46.158;14.604;2023-06-10T02:20:53;3.10;;;2.90;;
66425;SDS011;53237;46.158;14.604;2023-06-10T02:23:19;3.45;;;3.22;;
66425;SDS011;53237;46.158;14.604;2023-06-10T02:25:45;3.17;;;2.97;;
66425;SDS011;53237;46.158;14.604;2023-06-10T02:28:13;3.78;;;3.47;;
66425;SDS011;53237;46.158;14.604;2023-06-10T02:30:40;3.30;;;3.10;;
66425;SDS011;53237;46.158;14.604;2023-06-10T02:33:06;3.25;;;2.95;;
66425;SDS011;53237;46.158;14.604;2023-06-10T02:35:35;3.00;;;2.80;;
66425;SDS011;53237;46.158;14.604;2023-06-10T02:38:01;3.40;;;3.20;;
66425;SDS011;53237;46.158;14.604;2023-06-10T02:40:27;4.57;;;3.58;;
66425;SDS011;53237;46.158;14.604;2023-06-10T02:42:53;3.20;;;3.00;;
66425;SDS011;53237;46.158;14.604;2023-06-10T02:45:19;3.80;;;3.50;;
66425;SDS011;53237;46.158;14.604;2023-06-10T02:47:45;3.58;;;3.28;;
66425;SDS011;53237;46.158;14.604;2023-06-10T02:50:11;3.80;;;3.50;;
66425;SDS011;53237;46.158;14.604;2023-06-10T02:52:38;3.90;;;3.60;;
66425;SDS011;53237;46.158;14.604;2023-06-10T02:55:04;3.72;;;3.30;;
66425;SDS011;53237;46.158;14.604;2023-06-10T02:57:31;3.50;;;3.20;;
66425;SDS011;53237;46.158;14.604;2023-06-10T02:59:57;4.15;;;3.83;;
66425;SDS011;53237;46.158;14.604;2023-06-10T03:02:23;3.72;;;3.42;;
66425;SDS011;53237;46.158;14.604;2023-06-10T03:04:53;4.18;;;3.88;;
66425;SDS011;53237;46.158;14.604;2023-06-10T03:07:20;3.95;;;3.65;;
66425;SDS011;53237;46.158;14.604;2023-06-10T03:09:46;3.58;;;3.38;;
66425;SDS011;53237;46.158;14.604;2023-06-10T03:12:12;3.78;;;3.47;;
66425;SDS011;53237;46.158;14.604;2023-06-10T03:14:38;3.92;;;3.63;;
66425;SDS011;53237;46.158;14.604;2023-06-10T03:17:04;3.83;;;3.63;;
66425;SDS011;53237;46.158;14.604;2023-06-10T03:19:31;3.33;;;3.13;;
66425;SDS011;53237;46.158;14.604;2023-06-10T03:22:07;3.80;;;3.50;;
66425;SDS011;53237;46.158;14.604;2023-06-10T03:24:33;3.47;;;3.28;;
66425;SDS011;53237;46.158;14.604;2023-06-10T03:26:59;3.70;;;3.40;;
66425;SDS011;53237;46.158;14.604;2023-06-10T03:29:26;2.95;;;2.75;;
66425;SDS011;53237;46.158;14.604;2023-06-10T03:31:52;3.58;;;3.38;;
66425;SDS011;53237;46.158;14.604;2023-06-10T03:34:18;3.53;;;3.30;;
66425;SDS011;53237;46.158;14.604;2023-06-10T03:36:43;3.45;;;3.25;;
66425;SDS011;53237;46.158;14.604;2023-06-10T03:39:09;3.28;;;2.97;;
66425;SDS011;53237;46.158;14.604;2023-06-10T03:41:35;2.90;;;2.70;;
66425;SDS011;53237;46.158;14.604;2023-06-10T03:44:02;3.20;;;3.00;;
66425;SDS011;53237;46.158;14.604;2023-06-10T03:46:28;2.70;;;2.50;;
66425;SDS011;53237;46.158;14.604;2023-06-10T03:48:54;3.00;;;2.80;;
66425;SDS011;53237;46.158;14.604;2023-06-10T03:51:20;3.25;;;2.95;;
66425;SDS011;53237;46.158;14.604;2023-06-10T03:53:47;2.90;;;2.70;;
66425;SDS011;53237;46.158;14.604;2023-06-10T03:56:13;2.70;;;2.50;;
66425;SDS011;53237;46.158;14.604;2023-06-10T03:58:39;2.65;;;2.53;;
66425;SDS011;53237;46.158;14.604;2023-06-10T04:01:05;3.13;;;2.92;;
66425;SDS011;53237;46.158;14.604;2023-06-10T04:03:32;3.00;;;2.80;;
66425;SDS011;53237;46.158;14.604;2023-06-10T04:05:58;3.05;;;2.83;;
66425;SDS011;53237;46.158;14.604;2023-06-10T04:08:24;2.55;;;2.35;;
66425;SDS011;53237;46.158;14.604;2023-06-10T04:10:50;3.00;;;2.80;;
66425;SDS011;53237;46.158;14.604;2023-06-10T04:13:16;2.90;;;2.70;;
66425;SDS011;53237;46.158;14.604;2023-06-10T04:15:44;3.17;;;2.85;;
66425;SDS011;53237;46.158;14.604;2023-06-10T04:18:10;3.10;;;2.90;;
66425;SDS011;53237;46.158;14.604;2023-06-10T04:20:36;2.85;;;2.65;;
66425;SDS011;53237;46.158;14.604;2023-06-10T04:23:02;3.63;;;2.90;;
66425;SDS011;53237;46.158;14.604;2023-06-10T04:25:28;2.80;;;2.70;;
66425;SDS011;53237;46.158;14.604;2023-06-10T04:27:54;3.20;;;2.90;;
66425;SDS011;53237;46.158;14.604;2023-06-10T04:30:21;3.60;;;3.30;;
66425;SDS011;53237;46.158;14.604;2023-06-10T04:32:47;3.55;;;3.35;;
66425;SDS011;53237;46.158;14.604;2023-06-10T04:35:13;2.90;;;2.70;;
66425;SDS011;53237;46.158;14.604;2023-06-10T04:37:39;4.15;;;2.80;;
66425;SDS011;53237;46.158;14.604;2023-06-10T04:40:06;3.25;;;3.05;;
66425;SDS011;53237;46.158;14.604;2023-06-10T04:42:32;3.20;;;3.00;;
66425;SDS011;53237;46.158;14.604;2023-06-10T04:44:58;3.00;;;2.80;;
66425;SDS011;53237;46.158;14.604;2023-06-10T04:47:25;3.33;;;3.08;;
66425;SDS011;53237;46.158;14.604;2023-06-10T04:49:51;3.03;;;2.83;;
66425;SDS011;53237;46.158;14.604;2023-06-10T04:52:17;3.00;;;2.80;;
66425;SDS011;53237;46.158;14.604;2023-06-10T04:54:43;3.25;;;2.88;;
66425;SDS011;53237;46.158;14.604;2023-06-10T04:57:09;3.38;;;3.17;;
66425;SDS011;53237;46.158;14.604;2023-06-10T04:59:36;2.95;;;2.70;;
66425;SDS011;53237;46.158;14.604;2023-06-10T05:02:03;2.80;;;2.60;;
66425;SDS011;53237;46.158;14.604;2023-06-10T05:04:30;2.90;;;2.70;;
66425;SDS011;53237;46.158;14.604;2023-06-10T05:06:56;3.25;;;3.05;;
66425;SDS011;53237;46.158;14.604;2023-06-10T05:09:22;2.63;;;2.42;;
66425;SDS011;53237;46.158;14.604;2023-06-10T05:11:48;3.10;;;2.90;;
66425;SDS011;53237;46.158;14.604;2023-06-10T05:14:14;3.60;;;3.30;;
66425;SDS011;53237;46.158;14.604;2023-06-10T05:16:44;3.08;;;2.88;;
66425;SDS011;53237;46.158;14.604;2023-06-10T05:19:10;3.00;;;2.80;;
66425;SDS011;53237;46.158;14.604;2023-06-10T05:21:36;2.78;;;2.58;;
66425;SDS011;53237;46.158;14.604;2023-06-10T05:24:02;2.67;;;2.47;;
66425;SDS011;53237;46.158;14.604;2023-06-10T05:26:28;3.10;;;2.85;;
66425;SDS011;53237;46.158;14.604;2023-06-10T05:28:56;3.38;;;3.17;;
66425;SDS011;53237;46.158;14.604;2023-06-10T05:31:23;2.60;;;2.45;;
66425;SDS011;53237;46.158;14.604;2023-06-10T05:33:49;2.72;;;2.53;;
66425;SDS011;53237;46.158;14.604;2023-06-10T05:36:15;2.80;;;2.53;;
66425;SDS011;53237;46.158;14.604;2023-06-10T05:38:41;2.30;;;2.20;;
66425;SDS011;53237;46.158;14.604;2023-06-10T05:41:07;2.80;;;2.60;;
66425;SDS011;53237;46.158;14.604;2023-06-10T05:43:33;2.30;;;2.20;;
66425;SDS011;53237;46.158;14.604;2023-06-10T05:46:00;2.72;;;2.53;;
66425;SDS011;53237;46.158;14.604;2023-06-10T05:48:26;2.80;;;2.60;;
66425;SDS011;53237;46.158;14.604;2023-06-10T05:50:51;2.65;;;2.50;;
66425;SDS011;53237;46.158;14.604;2023-06-10T05:53:17;2.90;;;2.70;;
66425;SDS011;53237;46.158;14.604;2023-06-10T05:55:44;2.78;;;2.58;;
66425;SDS011;53237;46.158;14.604;2023-06-10T05:58:10;2.60;;;2.40;;
66425;SDS011;53237;46.158;14.604;2023-06-10T06:00:39;2.60;;;2.40;;
66425;SDS011;53237;46.158;14.604;2023-06-10T06:03:06;3.13;;;2.92;;
66425;SDS011;53237;46.158;14.604;2023-06-10T06:05:33;2.60;;;2.50;;
66425;SDS011;53237;46.158;14.604;2023-06-10T06:08:09;2.60;;;2.40;;
66425;SDS011;53237;46.158;14.604;2023-06-10T06:10:35;3.08;;;2.88;;
66425;SDS011;53237;46.158;14.604;2023-06-10T06:13:01;2.80;;;2.60;;
66425;SDS011;53237;46.158;14.604;2023-06-10T06:15:27;3.13;;;2.92;;
66425;SDS011;53237;46.158;14.604;2023-06-10T06:17:53;3.22;;;2.88;;
66425;SDS011;53237;46.158;14.604;2023-06-10T06:20:20;3.45;;;2.90;;
66425;SDS011;53237;46.158;14.604;2023-06-10T06:22:46;3.10;;;2.70;;
66425;SDS011;53237;46.158;14.604;2023-06-10T06:25:12;3.53;;;3.20;;
66425;SDS011;53237;46.158;14.604;2023-06-10T06:27:38;3.30;;;3.10;;
66425;SDS011;53237;46.158;14.604;2023-06-10T06:30:04;3.10;;;2.90;;
66425;SDS011;53237;46.158;14.604;2023-06-10T06:32:31;2.92;;;2.72;;
66425;SDS011;53237;46.158;14.604;2023-06-10T06:34:57;3.30;;;3.10;;
66425;SDS011;53237;46.158;14.604;2023-06-10T06:37:24;3.47;;;3.17;;
66425;SDS011;53237;46.158;14.604;2023-06-10T06:39:53;3.50;;;3.20;;
66425;SDS011;53237;46.158;14.604;2023-06-10T06:42:20;3.53;;;3.33;;
66425;SDS011;53237;46.158;14.604;2023-06-10T06:44:46;3.15;;;2.95;;
66425;SDS011;53237;46.158;14.604;2023-06-10T06:47:12;3.00;;;2.80;;
66425;SDS011;53237;46.158;14.604;2023-06-10T06:49:38;3.10;;;2.90;;
66425;SDS011;53237;46.158;14.604;2023-06-10T06:52:04;4.35;;;4.00;;
66425;SDS011;53237;46.158;14.604;2023-06-10T06:54:31;3.42;;;3.17;;
66425;SDS011;53237;46.158;14.604;2023-06-10T06:56:57;3.78;;;3.47;;
66425;SDS011;53237;46.158;14.604;2023-06-10T06:59:23;5.30;;;4.53;;
66425;SDS011;53237;46.158;14.604;2023-06-10T07:01:50;4.07;;;3.78;;
66425;SDS011;53237;46.158;14.604;2023-06-10T07:04:18;3.85;;;3.55;;
66425;SDS011;53237;46.158;14.604;2023-06-10T07:06:46;3.50;;;3.20;;
66425;SDS011;53237;46.158;14.604;2023-06-10T07:09:12;3.78;;;3.47;;
66425;SDS011;53237;46.158;14.604;2023-06-10T07:11:38;3.70;;;3.50;;
66425;SDS011;53237;46.158;14.604;2023-06-10T07:14:04;3.85;;;3.38;;
66425;SDS011;53237;46.158;14.604;2023-06-10T07:16:30;3.70;;;3.40;;
66425;SDS011;53237;46.158;14.604;2023-06-10T07:18:56;4.50;;;4.20;;
66425;SDS011;53237;46.158;14.604;2023-06-10T07:21:22;4.55;;;4.25;;
66425;SDS011;53237;46.158;14.604;2023-06-10T07:23:48;3.42;;;3.13;;
66425;SDS011;53237;46.158;14.604;2023-06-10T07:26:17;3.30;;;3.00;;
66425;SDS011;53237;46.158;14.604;2023-06-10T07:28:43;3.25;;;3.05;;
66425;SDS011;53237;46.158;14.604;2023-06-10T07:31:10;3.40;;;3.20;;
66425;SDS011;53237;46.158;14.604;2023-06-10T07:33:39;3.38;;;3.08;;
66425;SDS011;53237;46.158;14.604;2023-06-10T07:36:06;2.97;;;2.78;;
66425;SDS011;53237;46.158;14.604;2023-06-10T07:38:32;3.72;;;3.15;;
66425;SDS011;53237;46.158;14.604;2023-06-10T07:40:59;3.85;;;3.55;;
66425;SDS011;53237;46.158;14.604;2023-06-10T07:43:25;4.15;;;3.83;;
66425;SDS011;53237;46.158;14.604;2023-06-10T07:45:51;3.95;;;3.65;;
66425;SDS011;53237;46.158;14.604;2023-06-10T07:48:16;3.90;;;3.60;;
66425;SDS011;53237;46.158;14.604;2023-06-10T07:50:42;3.30;;;3.10;;
66425;SDS011;53237;46.158;14.604;2023-06-10T07:53:08;3.53;;;3.10;;
66425;SDS011;53237;46.158;14.604;2023-06-10T07:55:35;4.75;;;3.33;;
66425;SDS011;53237;46.158;14.604;2023-06-10T07:58:01;3.20;;;2.90;;
66425;SDS011;53237;46.158;14.604;2023-06-10T08:00:26;3.53;;;3.33;;
66425;SDS011;53237;46.158;14.604;2023-06-10T08:02:52;2.90;;;2.70;;
66425;SDS011;53237;46.158;14.604;2023-06-10T08:05:18;3.20;;;3.00;;
66425;SDS011;53237;46.158;14.604;2023-06-10T08:07:45;2.60;;;2.40;;
66425;SDS011;53237;46.158;14.604;2023-06-10T08:10:11;2.75;;;2.55;;
66425;SDS011;53237;46.158;14.604;2023-06-10T08:12:37;2.70;;;2.50;;
66425;SDS011;53237;46.158;14.604;2023-06-10T08:15:03;2.92;;;2.67;;
66425;SDS011;53237;46.158;14.604;2023-06-10T08:17:30;2.60;;;2.40;;
66425;SDS011;53237;46.158;14.604;2023-06-10T08:19:56;2.63;;;2.42;;
66425;SDS011;53237;46.158;14.604;2023-06-10T08:22:22;2.30;;;2.20;;
66425;SDS011;53237;46.158;14.604;2023-06-10T08:24:48;2.72;;;2.53;;
66425;SDS011;53237;46.158;14.604;2023-06-10T08:27:14;2.75;;;2.55;;
66425;SDS011;53237;46.158;14.604;2023-06-10T08:29:40;2.45;;;2.25;;
66425;SDS011;53237;46.158;14.604;2023-06-10T08:32:06;2.25;;;2.10;;
66425;SDS011;53237;46.158;14.604;2023-06-10T08:34:35;2.90;;;2.70;;
66425;SDS011;53237;46.158;14.604;2023-06-10T08:37:02;2.42;;;2.33;;
66425;SDS011;53237;46.158;14.604;2023-06-10T08:39:28;2.78;;;2.58;;
66425;SDS011;53237;46.158;14.604;2023-06-10T08:42:01;2.47;;;2.38;;
66425;SDS011;53237;46.158;14.604;2023-06-10T08:44:31;2.53;;;2.33;;
66425;SDS011;53237;46.158;14.604;2023-06-10T08:46:58;2.90;;;2.70;;
66425;SDS011;53237;46.158;14.604;2023-06-10T08:49:26;2.58;;;2.47;;
66425;SDS011;53237;46.158;14.604;2023-06-10T08:51:55;2.53;;;2.40;;
66425;SDS011;53237;46.158;14.604;2023-06-10T08:54:22;2.60;;;2.40;;
66425;SDS011;53237;46.158;14.604;2023-06-10T08:56:50;2.55;;;2.35;;
66425;SDS011;53237;46.158;14.604;2023-06-10T08:59:16;2.50;;;2.40;;
66425;SDS011;53237;46.158;14.604;2023-06-10T09:01:43;2.70;;;2.50;;
66425;SDS011;53237;46.158;14.604;2023-06-10T09:04:09;2.40;;;2.30;;
66425;SDS011;53237;46.158;14.604;2023-06-10T09:06:36;3.30;;;3.10;;
66425;SDS011;53237;46.158;14.604;2023-06-10T09:09:03;2.50;;;2.30;;
66425;SDS011;53237;46.158;14.604;2023-06-10T09:11:31;2.58;;;2.38;;
66425;SDS011;53237;46.158;14.604;2023-06-10T09:13:57;2.45;;;2.25;;
66425;SDS011;53237;46.158;14.604;2023-06-10T09:16:23;2.70;;;2.50;;
66425;SDS011;53237;46.158;14.604;2023-06-10T09:18:49;2.50;;;2.40;;
66425;SDS011;53237;46.158;14.604;2023-06-10T09:21:20;2.90;;;2.70;;
66425;SDS011;53237;46.158;14.604;2023-06-10T09:23:46;2.85;;;2.55;;
66425;SDS011;53237;46.158;14.604;2023-06-10T09:26:13;2.72;;;2.53;;
66425;SDS011;53237;46.158;14.604;2023-06-10T09:28:39;3.17;;;2.58;;
66425;SDS011;53237;46.158;14.604;2023-06-10T09:31:05;2.50;;;2.30;;
66425;SDS011;53237;46.158;14.604;2023-06-10T09:33:38;3.00;;;2.80;;
66425;SDS011;53237;46.158;14.604;2023-06-10T09:36:04;3.38;;;3.10;;
66425;SDS011;53237;46.158;14.604;2023-06-10T09:38:31;3.33;;;3.03;;
66425;SDS011;53237;46.158;14.604;2023-06-10T09:40:57;3.72;;;3.42;;
66425;SDS011;53237;46.158;14.604;2023-06-10T09:43:38;3.17;;;2.97;;
66425;SDS011;53237;46.158;14.604;2023-06-10T09:46:04;3.70;;;3.47;;
66425;SDS011;53237;46.158;14.604;2023-06-10T09:48:34;3.13;;;2.92;;
66425;SDS011;53237;46.158;14.604;2023-06-10T09:50:59;3.20;;;2.90;;
66425;SDS011;53237;46.158;14.604;2023-06-10T09:53:25;3.00;;;2.80;;
66425;SDS011;53237;46.158;14.604;2023-06-10T09:55:52;3.13;;;2.92;;
66425;SDS011;53237;46.158;14.604;2023-06-10T09:58:18;3.20;;;3.00;;
66425;SDS011;53237;46.158;14.604;2023-06-10T10:00:44;3.72;;;3.33;;
66425;SDS011;53237;46.158;14.604;2023-06-10T10:03:10;5.60;;;4.38;;
66425;SDS011;53237;46.158;14.604;2023-06-10T10:05:47;3.78;;;3.47;;
66425;SDS011;53237;46.158;14.604;2023-06-10T10:08:13;3.55;;;3.28;;
66425;SDS011;53237;46.158;14.604;2023-06-10T10:10:39;3.80;;;3.50;;
66425;SDS011;53237;46.158;14.604;2023-06-10T10:13:05;4.22;;;3.92;;
66425;SDS011;53237;46.158;14.604;2023-06-10T10:15:32;5.35;;;4.95;;
66425;SDS011;53237;46.158;14.604;2023-06-10T10:18:11;4.90;;;4.50;;
66425;SDS011;53237;46.158;14.604;2023-06-10T10:20:48;4.55;;;4.15;;
66425;SDS011;53237;46.158;14.604;2023-06-10T10:23:21;4.13;;;3.83;;
66425;SDS011;53237;46.158;14.604;2023-06-10T10:25:51;4.20;;;3.80;;
66425;SDS011;53237;46.158;14.604;2023-06-10T10:28:17;3.80;;;3.50;;
66425;SDS011;53237;46.158;14.604;2023-06-10T10:30:47;4.65;;;4.20;;
66425;SDS011;53237;46.158;14.604;2023-06-10T10:35:59;7.55;;;4.28;;
66425;SDS011;53237;46.158;14.604;2023-06-10T10:38:26;5.18;;;4.30;;
66425;SDS011;53237;46.158;14.604;2023-06-10T10:40:53;5.78;;;4.60;;
66425;SDS011;53237;46.158;14.604;2023-06-10T10:43:20;4.45;;;3.95;;
66425;SDS011;53237;46.158;14.604;2023-06-10T10:45:57;3.40;;;3.10;;
66425;SDS011;53237;46.158;14.604;2023-06-10T10:48:23;3.80;;;3.50;;
66425;SDS011;53237;46.158;14.604;2023-06-10T10:50:56;8.38;;;5.03;;
66425;SDS011;53237;46.158;14.604;2023-06-10T10:53:23;6.10;;;4.80;;
66425;SDS011;53237;46.158;14.604;2023-06-10T10:55:59;5.60;;;5.20;;
66425;SDS011;53237;46.158;14.604;2023-06-10T10:58:25;5.43;;;4.65;;
66425;SDS011;53237;46.158;14.604;2023-06-10T11:00:52;4.57;;;4.18;;
66425;SDS011;53237;46.158;14.604;2023-06-10T11:03:18;3.70;;;3.40;;
66425;SDS011;53237;46.158;14.604;2023-06-10T11:05:45;4.95;;;4.55;;
66425;SDS011;53237;46.158;14.604;2023-06-10T11:08:14;5.55;;;4.15;;
66425;SDS011;53237;46.158;14.604;2023-06-10T11:10:41;7.03;;;5.55;;
66425;SDS011;53237;46.158;14.604;2023-06-10T11:13:08;5.30;;;4.80;;
66425;SDS011;53237;46.158;14.604;2023-06-10T11:15:38;4.70;;;4.30;;
66425;SDS011;53237;46.158;14.604;2023-06-10T11:23:02;4.90;;;4.50;;
66425;SDS011;53237;46.158;14.604;2023-06-10T11:25:38;5.97;;;5.47;;
66425;SDS011;53237;46.158;14.604;2023-06-10T11:28:07;5.13;;;4.80;;
66425;SDS011;53237;46.158;14.604;2023-06-10T11:30:42;5.63;;;5.10;;
66425;SDS011;53237;46.158;14.604;2023-06-10T11:33:08;5.55;;;5.07;;
66425;SDS011;53237;46.158;14.604;2023-06-10T11:35:35;5.68;;;5.18;;
66425;SDS011;53237;46.158;14.604;2023-06-10T11:38:01;4.97;;;4.50;;
66425;SDS011;53237;46.158;14.604;2023-06-10T11:40:27;5.30;;;4.90;;
66425;SDS011;53237;46.158;14.604;2023-06-10T11:42:55;5.03;;;4.63;;
66425;SDS011;53237;46.158;14.604;2023-06-10T11:45:21;5.28;;;4.88;;
66425;SDS011;53237;46.158;14.604;2023-06-10T11:47:59;6.15;;;5.43;;
66425;SDS011;53237;46.158;14.604;2023-06-10T11:50:29;5.00;;;4.50;;
66425;SDS011;53237;46.158;14.604;2023-06-10T11:52:55;3.83;;;3.53;;
66425;SDS011;53237;46.158;14.604;2023-06-10T11:55:23;4.18;;;3.78;;
66425;SDS011;53237;46.158;14.604;2023-06-10T11:57:49;4.10;;;3.70;;
66425;SDS011;53237;46.158;14.604;2023-06-10T12:00:22;4.18;;;3.75;;
66425;SDS011;53237;46.158;14.604;2023-06-10T12:02:55;4.07;;;3.45;;
66425;SDS011;53237;46.158;14.604;2023-06-10T12:05:22;3.40;;;3.10;;
66425;SDS011;53237;46.158;14.604;2023-06-10T12:07:48;3.97;;;3.30;;
66425;SDS011;53237;46.158;14.604;2023-06-10T12:10:14;3.70;;;3.40;;
66425;SDS011;53237;46.158;14.604;2023-06-10T12:12:41;4.00;;;3.70;;
66425;SDS011;53237;46.158;14.604;2023-06-10T12:15:08;3.28;;;3.08;;
66425;SDS011;53237;46.158;14.604;2023-06-10T12:20:02;4.07;;;3.78;;
66425;SDS011;53237;46.158;14.604;2023-06-10T12:22:39;3.75;;;3.45;;
66425;SDS011;53237;46.158;14.604;2023-06-10T12:25:05;3.70;;;3.40;;
66425;SDS011;53237;46.158;14.604;2023-06-10T12:27:32;4.15;;;3.70;;
66425;SDS011;53237;46.158;14.604;2023-06-10T12:29:58;3.38;;;3.08;;
66425;SDS011;53237;46.158;14.604;2023-06-10T12:32:42;3.80;;;3.50;;
66425;SDS011;53237;46.158;14.604;2023-06-10T12:35:09;3.58;;;3.28;;
66425;SDS011;53237;46.158;14.604;2023-06-10T12:37:36;3.60;;;3.30;;
66425;SDS011;53237;46.158;14.604;2023-06-10T12:40:03;4.38;;;3.67;;
66425;SDS011;53237;46.158;14.604;2023-06-10T12:42:36;3.70;;;3.40;;
66425;SDS011;53237;46.158;14.604;2023-06-10T12:45:03;3.53;;;3.22;;
66425;SDS011;53237;46.158;14.604;2023-06-10T12:47:36;3.58;;;3.28;;
66425;SDS011;53237;46.158;14.604;2023-06-10T12:50:04;4.22;;;3.40;;
66425;SDS011;53237;46.158;14.604;2023-06-10T12:52:30;3.20;;;2.90;;
66425;SDS011;53237;46.158;14.604;2023-06-10T12:54:57;3.25;;;3.05;;
66425;SDS011;53237;46.158;14.604;2023-06-10T12:57:23;3.25;;;3.05;;
66425;SDS011;53237;46.158;14.604;2023-06-10T12:59:50;3.10;;;2.90;;
66425;SDS011;53237;46.158;14.604;2023-06-10T13:02:20;3.38;;;3.15;;
66425;SDS011;53237;46.158;14.604;2023-06-10T13:04:48;3.70;;;2.80;;
66425;SDS011;53237;46.158;14.604;2023-06-10T13:07:15;3.58;;;3.28;;
66425;SDS011;53237;46.158;14.604;2023-06-10T13:09:41;3.55;;;3.28;;
66425;SDS011;53237;46.158;14.604;2023-06-10T13:12:07;3.08;;;2.88;;
66425;SDS011;53237;46.158;14.604;2023-06-10T13:14:33;3.70;;;3.40;;
66425;SDS011;53237;46.158;14.604;2023-06-10T13:16:59;3.58;;;3.30;;
66425;SDS011;53237;46.158;14.604;2023-06-10T13:19:25;3.30;;;3.08;;
66425;SDS011;53237;46.158;14.604;2023-06-10T13:21:51;3.22;;;3.03;;
66425;SDS011;53237;46.158;14.604;2023-06-10T13:24:17;3.67;;;3.38;;
66425;SDS011;53237;46.158;14.604;2023-06-10T13:26:45;3.47;;;3.13;;
66425;SDS011;53237;46.158;14.604;2023-06-10T13:29:11;3.30;;;2.85;;
66425;SDS011;53237;46.158;14.604;2023-06-10T13:31:39;3.40;;;3.20;;
66425;SDS011;53237;46.158;14.604;2023-06-10T13:34:05;3.80;;;3.50;;
66425;SDS011;53237;46.158;14.604;2023-06-10T13:36:31;4.00;;;3.70;;
66425;SDS011;53237;46.158;14.604;2023-06-10T13:38:57;4.20;;;3.80;;
66425;SDS011;53237;46.158;14.604;2023-06-10T13:41:23;3.40;;;3.20;;
66425;SDS011;53237;46.158;14.604;2023-06-10T13:43:49;3.88;;;3.58;;
66425;SDS011;53237;46.158;14.604;2023-06-10T13:46:15;3.28;;;3.05;;
66425;SDS011;53237;46.158;14.604;2023-06-10T13:48:41;3.17;;;2.97;;
66425;SDS011;53237;46.158;14.604;2023-06-10T13:51:07;3.67;;;3.47;;
66425;SDS011;53237;46.158;14.604;2023-06-10T13:53:36;3.05;;;2.85;;
66425;SDS011;53237;46.158;14.604;2023-06-10T13:56:02;3.35;;;3.13;;
66425;SDS011;53237;46.158;14.604;2023-06-10T13:58:28;3.20;;;2.92;;
66425;SDS011;53237;46.158;14.604;2023-06-10T14:00:54;3.47;;;3.22;;
66425;SDS011;53237;46.158;14.604;2023-06-10T14:03:20;3.47;;;3.17;;
66425;SDS011;53237;46.158;14.604;2023-06-10T14:05:46;3.40;;;3.20;;
66425;SDS011;53237;46.158;14.604;2023-06-10T14:08:12;3.53;;;3.33;;
66425;SDS011;53237;46.158;14.604;2023-06-10T14:10:38;3.58;;;3.28;;
66425;SDS011;53237;46.158;14.604;2023-06-10T14:13:05;3.20;;;3.00;;
66425;SDS011;53237;46.158;14.604;2023-06-10T14:15:31;3.65;;;3.35;;
66425;SDS011;53237;46.158;14.604;2023-06-10T14:17:57;3.97;;;3.67;;
66425;SDS011;53237;46.158;14.604;2023-06-10T14:20:23;4.15;;;3.85;;
66425;SDS011;53237;46.158;14.604;2023-06-10T14:22:51;4.00;;;3.60;;
66425;SDS011;53237;46.158;14.604;2023-06-10T14:25:17;4.32;;;3.50;;
66425;SDS011;53237;46.158;14.604;2023-06-10T14:27:43;4.07;;;3.78;;
66425;SDS011;53237;46.158;14.604;2023-06-10T14:30:11;3.80;;;3.50;;
66425;SDS011;53237;46.158;14.604;2023-06-10T14:32:38;5.03;;;3.72;;
66425;SDS011;53237;46.158;14.604;2023-06-10T14:35:04;4.20;;;3.83;;
66425;SDS011;53237;46.158;14.604;2023-06-10T14:37:30;4.95;;;4.45;;
66425;SDS011;53237;46.158;14.604;2023-06-10T14:39:56;4.50;;;4.20;;
66425;SDS011;53237;46.158;14.604;2023-06-10T14:42:22;3.85;;;3.55;;
66425;SDS011;53237;46.158;14.604;2023-06-10T14:44:48;4.20;;;3.90;;